Time;durP1;ratioP1;P1;durP2;ratioP2;P2;SDS_P1;SDS_P2;PMS_P1;PMS_P2;Temp;Humidity;BMP_temperature;BMP_pressure;BME280_temperature;BME280_humidity;BME280_pressure;Samples;Min_cycle;Max_cycle;Signal;HPM_P1;HPM_P2
2023/05/31 00:00:16;;;;;;;8.73;3.43;;;13.40;23.10;;;;;;5030530;28;46697;-78
2023/05/31 00:02:42;;;;;;;8.90;3.97;;;13.40;23.10;;;;;;5031648;28;46429;-78
2023/05/31 00:05:08;;;;;;;9.13;3.80;;;13.40;23.10;;;;;;5028255;28;46365;-77
2023/05/31 00:07:34;;;;;;;9.00;3.97;;;13.30;23.00;;;;;;5031207;28;46250;-78
2023/05/31 00:09:59;;;;;;;10.03;3.20;;;13.40;23.00;;;;;;5029386;28;45927;-79
2023/05/31 00:12:25;;;;;;;5.67;3.17;;;13.30;23.10;;;;;;5022119;28;47946;-77
2023/05/31 00:14:51;;;;;;;10.90;2.90;;;13.30;23.10;;;;;;5033122;28;46436;-79
2023/05/31 00:17:16;;;;;;;9.63;3.50;;;13.30;23.10;;;;;;5031983;28;45863;-79
2023/05/31 00:19:42;;;;;;;10.17;3.30;;;13.20;23.10;;;;;;5021750;28;46573;-79
2023/05/31 00:22:07;;;;;;;8.40;3.27;;;13.30;23.10;;;;;;5021303;28;48265;-78
2023/05/31 00:24:33;;;;;;;10.33;3.30;;;13.20;22.90;;;;;;5030285;28;47145;-79
2023/05/31 00:27:00;;;;;;;8.60;3.17;;;13.20;22.90;;;;;;5031335;28;46422;-79
2023/05/31 00:29:26;;;;;;;11.23;3.90;;;13.20;22.90;;;;;;5030234;28;46523;-79
2023/05/31 00:31:52;;;;;;;6.10;3.20;;;13.20;22.90;;;;;;5013422;28;48994;-79
2023/05/31 00:34:17;;;;;;;7.27;3.50;;;13.20;22.90;;;;;;5030134;28;46869;-78
2023/05/31 00:36:43;;;;;;;9.90;3.50;;;13.10;22.90;;;;;;5030570;28;46488;-78
2023/05/31 00:39:10;;;;;;;8.37;3.30;;;13.10;22.90;;;;;;5031573;28;46444;-79
2023/05/31 00:41:35;;;;;;;9.03;3.47;;;13.10;23.10;;;;;;5020985;28;48172;-78
2023/05/31 00:44:01;;;;;;;7.43;3.90;;;13.00;22.90;;;;;;5021563;28;46381;-79
2023/05/31 00:46:31;;;;;;;8.67;3.40;;;13.00;22.90;;;;;;5027422;28;46458;-78
2023/05/31 00:48:57;;;;;;;10.70;3.63;;;13.00;22.90;;;;;;5013517;28;45911;-78
2023/05/31 00:51:24;;;;;;;13.07;3.87;;;13.00;22.90;;;;;;5029304;28;46975;-79
2023/05/31 00:53:54;;;;;;;12.30;4.20;;;13.00;22.90;;;;;;5016272;28;46515;-78
2023/05/31 00:56:21;;;;;;;12.40;4.37;;;12.90;22.70;;;;;;5028578;28;46427;-79
2023/05/31 00:58:48;;;;;;;6.10;3.37;;;12.90;22.90;;;;;;5025767;28;46455;-78
2023/05/31 01:01:14;;;;;;;14.13;4.47;;;12.80;22.80;;;;;;5035272;28;46711;-77
2023/05/31 01:03:40;;;;;;;8.77;3.30;;;12.80;22.80;;;;;;5029491;28;46483;-79
2023/05/31 01:06:07;;;;;;;10.73;3.50;;;12.80;22.80;;;;;;5033006;28;46348;-77
2023/05/31 01:08:33;;;;;;;10.77;3.20;;;12.70;22.70;;;;;;5011585;28;46560;-79
2023/05/31 01:11:08;;;;;;;7.83;3.50;;;12.70;22.60;;;;;;5010374;28;49157;-79
2023/05/31 01:14:20;;;;;;;8.70;3.00;;;12.70;22.60;;;;;;5030222;28;46440;-78
2023/05/31 01:16:52;;;;;;;9.93;3.10;;;12.60;22.60;;;;;;5018971;28;46446;-79
2023/05/31 01:19:49;;;;;;;7.83;3.50;;;12.60;22.40;;;;;;5010837;28;46525;-79
2023/05/31 01:22:47;;;;;;;7.93;3.50;;;12.50;22.40;;;;;;5007885;28;48200;-79
2023/05/31 01:25:22;;;;;;;10.23;3.43;;;12.50;22.30;;;;;;5010645;28;46455;-80
2023/05/31 01:27:49;;;;;;;7.13;3.10;;;12.50;22.30;;;;;;5029390;28;46508;-79
2023/05/31 01:30:16;;;;;;;7.10;3.80;;;12.50;22.30;;;;;;5029270;28;45892;-78
2023/05/31 01:32:43;;;;;;;11.30;3.40;;;12.40;22.20;;;;;;5029543;28;47754;-78
2023/05/31 01:35:09;;;;;;;9.43;3.20;;;12.40;22.10;;;;;;5029577;28;46391;-78
2023/05/31 01:37:35;;;;;;;15.83;3.80;;;12.40;22.00;;;;;;5028278;28;46679;-78
2023/05/31 01:40:01;;;;;;;8.03;3.10;;;12.40;22.00;;;;;;5030401;28;46802;-78
2023/05/31 01:42:27;;;;;;;9.00;3.17;;;12.30;22.00;;;;;;5028737;28;47001;-78
2023/05/31 01:44:54;;;;;;;9.73;3.13;;;12.30;22.00;;;;;;5013113;28;46512;-79
2023/05/31 01:47:21;;;;;;;9.87;3.20;;;12.20;21.90;;;;;;5024865;28;46766;-80
2023/05/31 01:49:47;;;;;;;12.03;3.37;;;12.20;21.80;;;;;;5030480;28;45998;-79
2023/05/31 01:52:15;;;;;;;11.13;3.23;;;12.20;21.90;;;;;;5020393;28;46401;-78
2023/05/31 01:54:40;;;;;;;4.53;2.77;;;12.10;21.80;;;;;;5028686;28;47735;-77
2023/05/31 01:57:08;;;;;;;5.90;2.60;;;12.10;21.70;;;;;;5021772;28;47001;-78
2023/05/31 01:59:37;;;;;;;5.33;2.77;;;12.10;21.80;;;;;;5034069;28;46940;-79
2023/05/31 02:02:05;;;;;;;16.37;3.23;;;12.10;21.80;;;;;;5014365;28;48055;-78
2023/05/31 02:04:30;;;;;;;6.40;3.00;;;12.00;21.60;;;;;;5032909;28;46411;-77
2023/05/31 02:06:57;;;;;;;8.27;3.37;;;12.00;21.60;;;;;;5032214;28;46401;-79
2023/05/31 02:09:23;;;;;;;5.87;2.97;;;12.00;21.60;;;;;;5024289;28;46315;-78
2023/05/31 02:11:49;;;;;;;6.37;3.20;;;12.00;21.60;;;;;;5031638;28;46649;-78
2023/05/31 02:14:15;;;;;;;8.23;2.77;;;11.90;21.50;;;;;;5031417;28;46551;-78
2023/05/31 02:16:40;;;;;;;12.53;3.70;;;11.90;21.70;;;;;;5033699;28;46596;-79
2023/05/31 02:19:06;;;;;;;16.40;3.50;;;11.90;21.70;;;;;;5024505;28;46492;-79
2023/05/31 02:21:35;;;;;;;8.60;3.53;;;11.80;21.50;;;;;;5034210;28;46743;-78
2023/05/31 02:24:01;;;;;;;9.80;3.20;;;11.80;21.50;;;;;;5032103;28;46392;-78
2023/05/31 02:26:27;;;;;;;6.00;3.20;;;11.70;21.60;;;;;;5031213;28;46373;-78
2023/05/31 02:28:52;;;;;;;10.70;3.27;;;11.70;20.90;;;;;;5035086;28;46652;-78
2023/05/31 02:31:18;;;;;;;18.53;2.77;;;11.60;21.70;;;;;;5031286;28;46695;-77
2023/05/31 02:33:43;;;;;;;8.53;3.00;;;11.60;21.50;;;;;;5034591;28;46409;-78
2023/05/31 02:36:11;;;;;;;9.40;2.80;;;11.60;21.50;;;;;;5033015;28;46525;-78
2023/05/31 02:38:37;;;;;;;7.50;3.70;;;11.60;21.50;;;;;;5015710;28;46409;-78
2023/05/31 02:41:02;;;;;;;7.40;2.53;;;11.60;21.50;;;;;;5031360;28;46479;-78
2023/05/31 02:43:28;;;;;;;7.37;2.67;;;11.50;21.50;;;;;;5034761;28;46305;-79
2023/05/31 02:45:53;;;;;;;12.43;2.80;;;11.50;21.50;;;;;;5031307;28;46445;-79
2023/05/31 02:48:19;;;;;;;9.00;3.77;;;11.50;21.40;;;;;;5035424;28;46329;-76
2023/05/31 02:50:45;;;;;;;8.93;3.33;;;11.40;21.40;;;;;;5032292;28;46460;-78
2023/05/31 02:53:10;;;;;;;5.57;2.87;;;11.40;21.50;;;;;;5031148;28;46386;-79
2023/05/31 02:55:39;;;;;;;8.20;2.40;;;11.40;21.50;;;;;;5035102;28;46069;-79
2023/05/31 02:58:06;;;;;;;10.93;3.00;;;11.40;22.50;;;;;;5032350;28;46490;-78
2023/05/31 03:00:32;;;;;;;11.30;3.13;;;11.30;21.50;;;;;;5032297;28;46441;-79
2023/05/31 03:02:58;;;;;;;6.43;3.00;;;11.30;21.50;;;;;;5029783;28;46392;-78
2023/05/31 03:05:23;;;;;;;5.73;2.73;;;11.30;21.50;;;;;;5031561;28;46487;-79
2023/05/31 03:07:49;;;;;;;8.23;3.03;;;11.20;21.30;;;;;;5023358;28;46572;-79
2023/05/31 03:10:15;;;;;;;12.53;3.67;;;11.20;21.30;;;;;;5031906;28;47231;-78
2023/05/31 03:12:40;;;;;;;7.07;2.83;;;11.20;21.50;;;;;;5031908;28;46406;-79
2023/05/31 03:15:07;;;;;;;6.80;3.03;;;11.20;21.50;;;;;;5026972;28;46257;-78
2023/05/31 03:17:32;;;;;;;6.27;3.00;;;11.20;21.30;;;;;;5032120;28;46452;-78
2023/05/31 03:19:58;;;;;;;5.30;2.73;;;11.20;21.30;;;;;;5022926;28;48071;-79
2023/05/31 03:22:25;;;;;;;8.07;2.93;;;11.20;21.30;;;;;;5034134;28;46349;-79
2023/05/31 03:24:50;;;;;;;8.17;2.77;;;11.20;22.20;;;;;;5031331;28;46371;-81
2023/05/31 03:27:16;;;;;;;8.40;2.63;;;11.20;21.20;;;;;;5032539;28;45828;-81
2023/05/31 03:29:42;;;;;;;10.10;2.60;;;11.20;21.30;;;;;;5030732;28;46437;-82
2023/05/31 03:32:08;;;;;;;8.77;2.50;;;11.10;21.20;;;;;;5011680;28;46416;-81
2023/05/31 03:34:34;;;;;;;10.23;3.20;;;11.20;21.20;;;;;;5024135;28;45868;-80
2023/05/31 03:37:01;;;;;;;12.10;2.80;;;11.20;21.20;;;;;;5009134;28;46468;-82
2023/05/31 03:39:27;;;;;;;5.80;2.93;;;11.20;21.20;;;;;;5032753;28;46660;-79
2023/05/31 03:41:52;;;;;;;6.40;2.97;;;11.20;21.20;;;;;;5028966;28;46460;-78
2023/05/31 03:44:18;;;;;;;8.40;3.03;;;11.20;21.20;;;;;;5020994;28;46484;-80
2023/05/31 03:46:44;;;;;;;9.37;2.73;;;11.20;21.20;;;;;;5028214;28;46428;-80
2023/05/31 03:49:10;;;;;;;11.03;2.90;;;11.20;21.10;;;;;;5032168;28;47066;-81
2023/05/31 03:51:35;;;;;;;8.03;3.20;;;11.20;21.10;;;;;;5031033;28;46477;-81
2023/05/31 03:54:01;;;;;;;9.33;3.37;;;11.20;21.10;;;;;;5033366;28;46522;-78
2023/05/31 03:56:27;;;;;;;12.53;3.43;;;11.30;21.10;;;;;;5031337;28;45902;-78
2023/05/31 03:58:52;;;;;;;9.20;3.10;;;11.30;20.90;;;;;;5031070;28;46624;-80
2023/05/31 04:01:18;;;;;;;5.33;2.23;;;11.40;21.10;;;;;;5032179;28;46413;-79
2023/05/31 04:03:44;;;;;;;7.17;2.40;;;11.40;21.00;;;;;;5032653;28;46386;-81
2023/05/31 04:06:10;;;;;;;5.60;2.40;;;11.50;20.80;;;;;;5031214;28;45885;-78
2023/05/31 04:08:36;;;;;;;7.33;2.90;;;11.50;20.80;;;;;;5031193;28;46875;-83
2023/05/31 04:11:02;;;;;;;5.50;2.73;;;11.50;20.70;;;;;;5031296;28;45896;-84
2023/05/31 04:13:27;;;;;;;16.40;3.63;;;11.60;20.60;;;;;;5037013;28;46207;-81
2023/05/31 04:15:53;;;;;;;7.30;2.83;;;11.60;20.60;;;;;;5031334;28;46441;-80
2023/05/31 04:18:19;;;;;;;9.20;2.37;;;11.70;20.60;;;;;;5033886;28;46900;-81
2023/05/31 04:20:44;;;;;;;6.80;2.87;;;11.70;20.50;;;;;;5028732;28;46431;-80
2023/05/31 04:23:10;;;;;;;6.33;2.53;;;11.80;20.50;;;;;;5031590;28;46507;-82
2023/05/31 04:25:35;;;;;;;9.03;3.00;;;11.90;20.20;;;;;;5030630;28;46417;-81
2023/05/31 04:28:01;;;;;;;7.10;2.60;;;12.00;20.10;;;;;;5012288;28;49368;-79
2023/05/31 04:30:27;;;;;;;10.47;2.30;;;12.00;20.00;;;;;;5020864;28;46615;-83
2023/05/31 04:32:57;;;;;;;6.40;2.57;;;12.20;19.90;;;;;;5030572;28;46518;-82
2023/05/31 04:35:22;;;;;;;7.00;2.90;;;12.30;19.70;;;;;;5032880;28;46445;-81
2023/05/31 04:37:52;;;;;;;7.80;2.80;;;12.40;19.50;;;;;;5031478;28;46425;-82
2023/05/31 04:40:20;;;;;;;6.97;2.70;;;12.50;19.30;;;;;;5021191;28;46944;-80
2023/05/31 04:42:45;;;;;;;8.93;3.53;;;12.70;18.90;;;;;;5031591;28;46337;-82
2023/05/31 04:45:11;;;;;;;5.90;2.47;;;13.60;17.90;;;;;;5029366;28;45871;-81
2023/05/31 04:47:37;;;;;;;6.50;3.80;;;15.00;16.50;;;;;;5030318;28;46562;-82
2023/05/31 04:50:03;;;;;;;8.17;2.90;;;16.10;15.30;;;;;;5033448;28;46385;-81
2023/05/31 04:52:30;;;;;;;8.07;3.20;;;16.80;14.10;;;;;;5031900;28;46696;-81
2023/05/31 04:54:57;;;;;;;8.70;2.90;;;17.10;14.50;;;;;;5022449;28;46734;-80
2023/05/31 04:57:23;;;;;;;7.40;3.07;;;17.60;13.00;;;;;;5013596;28;47897;-81
2023/05/31 04:59:49;;;;;;;11.73;3.30;;;17.90;11.70;;;;;;5021894;28;46421;-82
2023/05/31 05:02:15;;;;;;;6.40;2.77;;;18.40;11.30;;;;;;5022894;28;46532;-81
2023/05/31 05:04:40;;;;;;;11.33;2.97;;;19.10;10.70;;;;;;5033016;28;45916;-82
2023/05/31 05:07:06;;;;;;;13.80;3.30;;;19.70;10.00;;;;;;5032007;28;47564;-83
2023/05/31 05:09:32;;;;;;;10.03;2.90;;;20.20;8.70;;;;;;5021899;28;46414;-79
2023/05/31 05:11:58;;;;;;;5.93;2.60;;;20.60;7.40;;;;;;5023027;28;46431;-80
2023/05/31 05:14:23;;;;;;;5.63;2.67;;;20.90;6.00;;;;;;5011506;28;46469;-82
2023/05/31 05:16:49;;;;;;;9.23;3.50;;;20.90;6.10;;;;;;5032395;28;46691;-79
2023/05/31 05:19:14;;;;;;;5.90;2.70;;;21.20;5.00;;;;;;5031419;28;46568;-81
2023/05/31 05:21:40;;;;;;;11.13;3.60;;;21.30;5.10;;;;;;5034584;28;46435;-81
2023/05/31 05:24:06;;;;;;;9.53;3.10;;;21.40;4.60;;;;;;5033697;28;45927;-81
2023/05/31 05:26:33;;;;;;;10.60;3.40;;;21.90;4.40;;;;;;5024472;28;47753;-80
2023/05/31 05:28:59;;;;;;;9.80;3.50;;;22.10;3.50;;;;;;5030187;28;46651;-81
2023/05/31 05:31:24;;;;;;;9.50;3.00;;;21.90;3.60;;;;;;5034057;28;46381;-81
2023/05/31 05:33:54;;;;;;;8.13;3.20;;;22.30;2.80;;;;;;5040209;28;46503;-81
2023/05/31 05:36:19;;;;;;;6.53;3.20;;;22.60;2.60;;;;;;5041093;28;47038;-80
2023/05/31 05:38:45;;;;;;;12.00;2.53;;;23.10;2.10;;;;;;5037499;28;46421;-81
2023/05/31 05:41:12;;;;;;;6.77;2.70;;;23.40;1.50;;;;;;5037903;28;46368;-83
2023/05/31 05:43:41;;;;;;;8.83;3.00;;;23.50;1.00;;;;;;5027530;28;46377;-82
2023/05/31 05:46:06;;;;;;;9.00;3.63;;;23.60;1.00;;;;;;5019608;28;48028;-81
2023/05/31 05:48:33;;;;;;;14.83;3.40;;;23.80;1.00;;;;;;5025268;28;46450;-83
2023/05/31 05:50:59;;;;;;;10.60;3.87;;;23.70;1.00;;;;;;5032529;28;46384;-82
2023/05/31 05:53:25;;;;;;;8.77;2.93;;;22.60;1.80;;;;;;5036808;28;46622;-82
2023/05/31 05:55:54;;;;;;;7.70;2.70;;;21.20;4.00;;;;;;5037576;28;46475;-84
2023/05/31 05:58:20;;;;;;;7.03;4.10;;;20.30;4.70;;;;;;5037723;28;47741;-84
2023/05/31 06:00:47;;;;;;;8.23;3.00;;;20.00;6.10;;;;;;5040862;28;46391;-85
2023/05/31 06:03:13;;;;;;;7.93;3.07;;;19.50;6.20;;;;;;5035145;28;46639;-82
2023/05/31 06:05:41;;;;;;;9.27;3.00;;;19.10;6.90;;;;;;5036949;28;47211;-82
2023/05/31 06:08:06;;;;;;;7.63;2.80;;;18.90;6.90;;;;;;5037852;28;46450;-81
2023/05/31 06:10:32;;;;;;;6.57;2.63;;;18.80;7.00;;;;;;5025330;28;46689;-83
2023/05/31 06:12:57;;;;;;;11.07;3.37;;;18.60;7.20;;;;;;5033449;28;46512;-80
2023/05/31 06:15:23;;;;;;;5.70;2.47;;;18.60;6.80;;;;;;5034108;28;46477;-83
2023/05/31 06:17:49;;;;;;;9.40;2.80;;;18.40;6.90;;;;;;5018089;28;46806;-82
2023/05/31 06:20:15;;;;;;;8.43;2.60;;;18.20;7.00;;;;;;5036224;28;46423;-81
2023/05/31 06:22:41;;;;;;;20.97;2.97;;;18.20;7.00;;;;;;5019607;28;45891;-80
2023/05/31 06:25:07;;;;;;;14.03;3.83;;;18.10;7.00;;;;;;5018360;28;46378;-80
2023/05/31 06:27:33;;;;;;;6.80;2.87;;;18.20;6.90;;;;;;5017825;28;46418;-82
2023/05/31 06:30:00;;;;;;;11.03;2.83;;;18.20;6.80;;;;;;5037758;28;46635;-80
2023/05/31 06:32:26;;;;;;;12.50;3.40;;;18.20;6.90;;;;;;5034828;28;46527;-82
2023/05/31 06:34:53;;;;;;;8.63;2.57;;;18.10;7.10;;;;;;5033900;28;46519;-81
2023/05/31 06:37:20;;;;;;;9.97;3.10;;;18.20;7.10;;;;;;5034473;28;46464;-83
2023/05/31 06:39:45;;;;;;;11.30;3.47;;;18.20;7.40;;;;;;5013448;28;46302;-81
2023/05/31 06:42:11;;;;;;;7.67;2.93;;;18.20;7.60;;;;;;5035411;28;46484;-80
2023/05/31 06:44:37;;;;;;;11.27;3.30;;;18.20;7.30;;;;;;5017019;28;48863;-82
2023/05/31 06:47:03;;;;;;;7.47;3.17;;;18.30;7.50;;;;;;5025351;28;46819;-81
2023/05/31 06:49:29;;;;;;;7.53;2.83;;;18.30;7.50;;;;;;5036838;28;46413;-80
2023/05/31 06:51:57;;;;;;;8.87;3.10;;;18.20;7.50;;;;;;5037671;28;46495;-81
2023/05/31 06:54:23;;;;;;;10.63;2.97;;;18.30;7.80;;;;;;5032555;28;46372;-82
2023/05/31 06:56:48;;;;;;;8.70;3.10;;;18.30;7.80;;;;;;5035274;28;46499;-82
2023/05/31 06:59:14;;;;;;;9.27;3.33;;;18.30;8.00;;;;;;5024689;28;46413;-81
2023/05/31 07:01:39;;;;;;;13.37;3.63;;;18.30;8.00;;;;;;5016111;28;46500;-83
2023/05/31 07:04:05;;;;;;;9.00;3.40;;;18.30;8.10;;;;;;5035282;28;47087;-81
2023/05/31 07:06:31;;;;;;;6.50;2.70;;;18.40;8.20;;;;;;5032941;28;46418;-82
2023/05/31 07:08:57;;;;;;;12.27;3.03;;;18.50;8.20;;;;;;5036119;28;46412;-82
2023/05/31 07:11:23;;;;;;;10.97;3.17;;;18.50;8.00;;;;;;5033603;28;46466;-82
2023/05/31 07:13:49;;;;;;;13.37;3.00;;;18.50;8.20;;;;;;5032734;28;46321;-82
2023/05/31 07:16:14;;;;;;;8.00;3.20;;;18.60;8.20;;;;;;5033490;28;46532;-80
2023/05/31 07:18:40;;;;;;;9.80;3.90;;;18.70;8.30;;;;;;5033428;28;46496;-82
2023/05/31 07:21:08;;;;;;;13.77;3.00;;;18.70;8.00;;;;;;5023852;28;46666;-82
2023/05/31 07:23:33;;;;;;;7.50;2.60;;;18.60;8.00;;;;;;5035055;28;47084;-83
2023/05/31 07:26:00;;;;;;;7.30;3.27;;;18.50;8.20;;;;;;5032125;28;46943;-82
2023/05/31 07:28:26;;;;;;;11.07;3.37;;;18.40;8.20;;;;;;5024321;28;46393;-82
2023/05/31 07:30:51;;;;;;;8.80;3.33;;;18.60;8.20;;;;;;5034245;28;45852;-82
2023/05/31 07:33:17;;;;;;;9.27;3.17;;;18.80;8.10;;;;;;5025400;28;48226;-82
2023/05/31 07:35:43;;;;;;;12.90;2.90;;;18.90;8.10;;;;;;5032961;28;46614;-82
2023/05/31 07:38:09;;;;;;;7.87;2.70;;;18.90;7.70;;;;;;5023713;28;46481;-82
2023/05/31 07:40:35;;;;;;;14.47;3.30;;;18.90;7.90;;;;;;5016709;28;46598;-82
2023/05/31 07:43:01;;;;;;;10.97;3.13;;;19.00;8.10;;;;;;5031857;28;46868;-82
2023/05/31 07:45:26;;;;;;;20.93;2.90;;;19.10;8.10;;;;;;5033633;28;46432;-84
2023/05/31 07:47:52;;;;;;;20.03;3.40;;;19.10;8.00;;;;;;5035472;28;46428;-84
2023/05/31 07:50:18;;;;;;;15.10;3.50;;;19.10;9.10;;;;;;5033320;28;46404;-81
2023/05/31 07:52:49;;;;;;;10.37;3.40;;;19.10;8.10;;;;;;5033058;28;47529;-80
2023/05/31 07:55:16;;;;;;;9.80;2.90;;;19.40;8.00;;;;;;5023355;28;46630;-81
2023/05/31 07:57:41;;;;;;;11.73;3.67;;;19.40;7.70;;;;;;5035089;28;46532;-82
2023/05/31 08:00:08;;;;;;;8.97;3.13;;;19.70;8.10;;;;;;5014542;28;46487;-79
2023/05/31 08:02:34;;;;;;;12.13;3.47;;;19.70;7.60;;;;;;5034391;28;46360;-83
2023/05/31 08:05:01;;;;;;;16.47;3.30;;;19.70;7.60;;;;;;5033625;28;46387;-82
2023/05/31 08:07:27;;;;;;;11.50;3.43;;;19.80;7.80;;;;;;5025768;28;47293;-81
2023/05/31 08:09:53;;;;;;;10.10;3.83;;;19.90;7.60;;;;;;5024285;28;46438;-80
2023/05/31 08:12:19;;;;;;;13.93;3.10;;;19.80;7.40;;;;;;5022782;28;48323;-81
2023/05/31 08:14:44;;;;;;;16.87;4.20;;;19.70;7.30;;;;;;5033593;28;46480;-82
2023/05/31 08:17:10;;;;;;;10.67;3.33;;;19.70;8.30;;;;;;5033436;28;46301;-80
2023/05/31 08:19:36;;;;;;;9.10;3.30;;;19.70;7.60;;;;;;5031651;28;46432;-82
2023/05/31 08:22:01;;;;;;;16.37;3.10;;;19.80;7.90;;;;;;5024277;28;48620;-80
2023/05/31 08:24:28;;;;;;;12.63;3.73;;;19.90;7.80;;;;;;5038583;28;46267;-82
2023/05/31 08:26:56;;;;;;;14.97;3.43;;;20.00;7.50;;;;;;5030763;28;46408;-79
2023/05/31 08:29:21;;;;;;;9.90;3.07;;;20.10;7.50;;;;;;5034576;28;46498;-81
2023/05/31 08:31:47;;;;;;;14.17;3.27;;;20.20;7.30;;;;;;5034369;28;46598;-82
2023/05/31 08:34:13;;;;;;;7.50;3.00;;;20.10;8.10;;;;;;5033197;28;46314;-80
2023/05/31 08:36:40;;;;;;;10.30;3.40;;;20.00;7.20;;;;;;5033000;28;46259;-81
2023/05/31 08:39:07;;;;;;;9.77;3.30;;;20.10;7.20;;;;;;5033639;28;46428;-82
2023/05/31 08:41:42;;;;;;;12.30;2.97;;;20.10;6.90;;;;;;5030745;28;47936;-81
2023/05/31 08:44:08;;;;;;;10.53;3.33;;;20.00;8.10;;;;;;5035378;28;46359;-81
2023/05/31 08:46:34;;;;;;;12.40;3.57;;;20.20;7.20;;;;;;5033572;28;46459;-82
2023/05/31 08:49:10;;;;;;;11.33;3.23;;;20.40;7.20;;;;;;5033330;28;46360;-81
2023/05/31 08:51:37;;;;;;;7.20;3.20;;;20.50;6.60;;;;;;5034841;28;47308;-82
2023/05/31 08:54:05;;;;;;;9.03;2.93;;;20.60;6.40;;;;;;5033551;28;46484;-82
2023/05/31 08:56:31;;;;;;;14.13;3.60;;;20.50;6.40;;;;;;5031877;28;46679;-81
2023/05/31 08:58:57;;;;;;;11.90;3.07;;;20.60;6.20;;;;;;5032358;28;46783;-81
2023/05/31 09:01:25;;;;;;;9.33;3.30;;;20.60;7.00;;;;;;5016244;28;48586;-80
2023/05/31 09:03:53;;;;;;;10.70;2.90;;;20.60;6.10;;;;;;5034684;28;46416;-82
2023/05/31 09:06:19;;;;;;;8.10;2.90;;;20.60;5.90;;;;;;5030952;28;46840;-83
2023/05/31 09:08:47;;;;;;;13.70;3.77;;;20.80;6.10;;;;;;5030349;28;46393;-82
2023/05/31 09:11:13;;;;;;;15.60;3.33;;;21.00;5.70;;;;;;5036903;28;46681;-81
2023/05/31 09:13:38;;;;;;;10.30;3.30;;;21.00;5.60;;;;;;5040113;28;46651;-82
2023/05/31 09:16:04;;;;;;;12.67;3.53;;;20.90;5.00;;;;;;5035802;28;46304;-81
2023/05/31 09:18:38;;;;;;;7.37;3.00;;;20.80;4.60;;;;;;5033066;28;45910;-81
2023/05/31 09:21:12;;;;;;;9.20;3.30;;;20.80;4.80;;;;;;5032176;28;47178;-83
2023/05/31 09:23:37;;;;;;;16.70;2.90;;;21.00;4.80;;;;;;5033267;28;46366;-82
2023/05/31 09:26:07;;;;;;;7.10;2.70;;;21.10;4.60;;;;;;5017652;28;46420;-82
2023/05/31 09:28:32;;;;;;;8.60;3.53;;;21.20;4.40;;;;;;5035601;28;46504;-83
2023/05/31 09:31:03;;;;;;;11.33;3.83;;;21.20;3.60;;;;;;5036694;28;46543;-82
2023/05/31 09:33:54;;;;;;;6.23;2.63;;;21.20;3.70;;;;;;5034646;28;46424;-81
2023/05/31 09:36:28;;;;;;;9.90;3.20;;;21.30;3.90;;;;;;5029793;28;46479;-83
2023/05/31 09:39:04;;;;;;;17.40;3.53;;;21.40;3.40;;;;;;5018418;28;46668;-81
2023/05/31 09:41:31;;;;;;;8.23;3.10;;;21.30;2.70;;;;;;5024457;28;48210;-81
2023/05/31 09:43:56;;;;;;;8.17;3.20;;;21.20;3.80;;;;;;5035526;28;46497;-79
2023/05/31 09:46:24;;;;;;;7.20;2.90;;;21.20;2.80;;;;;;5033553;28;46445;-81
2023/05/31 09:49:01;;;;;;;10.37;2.97;;;21.30;2.70;;;;;;5013324;28;46436;-82
2023/05/31 09:51:27;;;;;;;9.73;3.37;;;21.40;3.20;;;;;;5028437;28;46533;-80
2023/05/31 09:53:55;;;;;;;15.13;3.27;;;21.60;2.70;;;;;;5031127;28;45782;-81
2023/05/31 09:56:22;;;;;;;13.63;2.93;;;21.70;1.80;;;;;;5024498;28;46448;-81
2023/05/31 09:58:49;;;;;;;9.13;2.70;;;21.50;1.50;;;;;;5033095;28;46583;-81
2023/05/31 10:01:15;;;;;;;14.03;3.20;;;21.40;1.80;;;;;;5034687;28;47074;-81
2023/05/31 10:03:42;;;;;;;9.73;2.93;;;21.30;1.90;;;;;;5033853;28;46396;-80
2023/05/31 10:06:08;;;;;;;9.07;3.00;;;21.60;2.40;;;;;;5034084;28;46317;-80
2023/05/31 10:08:34;;;;;;;9.27;3.30;;;21.70;1.80;;;;;;5032370;28;46309;-80
2023/05/31 10:11:01;;;;;;;8.07;3.00;;;21.80;1.80;;;;;;5022543;28;48381;-81
2023/05/31 10:13:31;;;;;;;12.53;3.37;;;21.90;1.30;;;;;;5028955;28;46337;-80
2023/05/31 10:16:04;;;;;;;7.83;3.40;;;21.70;1.10;;;;;;5028373;28;46349;-80
2023/05/31 10:18:32;;;;;;;6.50;3.17;;;21.70;1.10;;;;;;5032765;28;46512;-81
2023/05/31 10:21:12;;;;;;;7.03;2.83;;;22.00;1.30;;;;;;5035315;28;46498;-81
2023/05/31 10:23:45;;;;;;;7.00;2.90;;;22.00;1.30;;;;;;5034275;28;46802;-82
2023/05/31 10:26:20;;;;;;;10.40;3.47;;;21.80;1.20;;;;;;5035434;28;46480;-82
2023/05/31 10:29:11;;;;;;;14.17;3.20;;;21.90;1.30;;;;;;5035916;28;46419;-79
2023/05/31 10:31:43;;;;;;;7.70;3.13;;;22.00;1.30;;;;;;5035114;28;46401;-81
2023/05/31 10:34:35;;;;;;;6.33;2.70;;;22.00;1.30;;;;;;5036069;28;46426;-81
2023/05/31 10:37:03;;;;;;;15.30;4.23;;;22.10;2.40;;;;;;5033625;28;45936;-82
2023/05/31 10:39:48;;;;;;;13.00;3.30;;;22.10;1.40;;;;;;5034485;28;46608;-80
2023/05/31 10:42:46;;;;;;;12.87;3.40;;;22.10;1.40;;;;;;5036582;28;46412;-81
2023/05/31 10:45:21;;;;;;;5.90;2.57;;;22.30;1.50;;;;;;5035678;28;46465;-81
2023/05/31 10:48:06;;;;;;;7.67;2.77;;;22.30;1.50;;;;;;5034618;28;46318;-82
2023/05/31 10:50:32;;;;;;;11.20;3.40;;;22.20;1.50;;;;;;5035206;28;45908;-81
2023/05/31 10:53:11;;;;;;;6.77;2.83;;;22.20;1.10;;;;;;5025263;28;48085;-81
2023/05/31 10:55:43;;;;;;;5.53;2.33;;;22.10;1.00;;;;;;5033615;28;46515;-81
2023/05/31 10:58:29;;;;;;;8.70;3.07;;;22.10;1.00;;;;;;5017120;28;46342;-81
2023/05/31 11:01:05;;;;;;;13.70;3.60;;;22.30;1.00;;;;;;5035413;28;46625;-80
2023/05/31 11:03:34;;;;;;;8.73;2.83;;;22.40;1.00;;;;;;5036286;28;46449;-80
2023/05/31 11:06:05;;;;;;;5.90;2.80;;;22.50;1.00;;;;;;5032412;28;46449;-79
2023/05/31 11:08:32;;;;;;;5.90;2.60;;;22.40;1.00;;;;;;5035730;28;45804;-80
2023/05/31 11:11:27;;;;;;;13.20;3.47;;;22.30;1.00;;;;;;5036084;28;45967;-81
2023/05/31 11:13:59;;;;;;;7.10;2.70;;;22.50;1.00;;;;;;5019268;28;48473;-82
2023/05/31 11:16:26;;;;;;;9.80;2.60;;;22.60;1.00;;;;;;5033521;28;46552;-82
2023/05/31 11:19:06;;;;;;;10.97;3.50;;;22.60;1.00;;;;;;5019713;28;46514;-82
2023/05/31 11:21:55;;;;;;;9.30;3.13;;;22.50;1.00;;;;;;5034422;28;46415;-82
2023/05/31 11:24:31;;;;;;;5.93;2.77;;;22.40;1.00;;;;;;5034405;28;46424;-82
2023/05/31 11:26:59;;;;;;;11.80;3.87;;;22.40;1.00;;;;;;5021376;28;46174;-78
2023/05/31 11:29:47;;;;;;;12.40;3.20;;;22.50;1.00;;;;;;5034253;28;46255;-82
2023/05/31 11:32:15;;;;;;;10.20;2.73;;;22.40;1.00;;;;;;5032953;28;46504;-81
2023/05/31 11:34:54;;;;;;;7.37;2.87;;;22.70;1.00;;;;;;5036063;28;46394;-81
2023/05/31 11:37:23;;;;;;;11.03;2.20;;;22.60;1.00;;;;;;5034124;28;46715;-79
2023/05/31 11:39:49;;;;;;;6.30;2.80;;;22.70;1.00;;;;;;5034185;28;45900;-81
2023/05/31 11:42:16;;;;;;;21.80;3.33;;;22.60;1.00;;;;;;5037092;28;46650;-81
2023/05/31 11:44:47;;;;;;;8.50;3.30;;;22.70;1.00;;;;;;5036217;28;46463;-81
2023/05/31 11:47:20;;;;;;;13.97;3.27;;;22.80;1.00;;;;;;5036337;28;46348;-81
2023/05/31 11:49:47;;;;;;;4.77;2.30;;;22.80;1.00;;;;;;5035315;28;46468;-83
2023/05/31 11:52:17;;;;;;;7.50;3.20;;;22.80;1.00;;;;;;5036226;28;46396;-81
2023/05/31 11:54:45;;;;;;;8.03;2.70;;;22.80;1.00;;;;;;5017527;28;48459;-79
2023/05/31 11:57:11;;;;;;;7.00;3.00;;;22.70;1.00;;;;;;5035096;28;46376;-80
2023/05/31 11:59:39;;;;;;;9.93;3.10;;;22.50;1.00;;;;;;5032552;28;46475;-79
2023/05/31 12:02:06;;;;;;;8.37;3.20;;;22.60;1.00;;;;;;5035302;28;46309;-80
2023/05/31 12:04:42;;;;;;;9.63;2.97;;;22.60;1.00;;;;;;5037940;28;47530;-81
2023/05/31 12:07:14;;;;;;;10.13;2.80;;;22.80;1.00;;;;;;5017087;28;46544;-78
2023/05/31 12:09:40;;;;;;;6.60;2.63;;;22.90;1.00;;;;;;5016546;28;46444;-79
2023/05/31 12:12:06;;;;;;;7.70;2.70;;;23.00;1.00;;;;;;5025911;28;46504;-80
2023/05/31 12:14:32;;;;;;;8.53;2.97;;;22.90;1.00;;;;;;5025405;28;47999;-80
2023/05/31 12:17:05;;;;;;;6.87;3.10;;;22.90;1.00;;;;;;5033508;28;46372;-82
2023/05/31 12:19:36;;;;;;;8.40;2.97;;;22.90;1.00;;;;;;5033254;28;46475;-80
2023/05/31 12:22:02;;;;;;;7.93;3.47;;;22.80;1.00;;;;;;5036385;28;46452;-81
2023/05/31 12:24:28;;;;;;;12.13;3.00;;;23.10;1.00;;;;;;5036137;28;46909;-82
2023/05/31 12:26:54;;;;;;;8.17;3.07;;;23.00;1.00;;;;;;5036293;28;46248;-80
2023/05/31 12:29:27;;;;;;;10.80;3.20;;;23.10;1.00;;;;;;5036365;28;45772;-79
2023/05/31 12:32:03;;;;;;;6.03;2.57;;;23.00;1.00;;;;;;5014509;28;46409;-78
2023/05/31 12:34:32;;;;;;;9.43;3.37;;;22.90;1.00;;;;;;5028628;28;47030;-77
2023/05/31 12:37:03;;;;;;;6.30;2.43;;;22.80;1.00;;;;;;5033383;28;45926;-77
2023/05/31 12:39:28;;;;;;;6.67;2.53;;;22.80;1.00;;;;;;5030552;28;46353;-78
2023/05/31 12:41:54;;;;;;;15.77;3.20;;;22.90;1.00;;;;;;5029495;28;46467;-78
2023/05/31 12:44:23;;;;;;;13.00;3.10;;;22.90;1.00;;;;;;5032247;28;46377;-78
2023/05/31 12:46:50;;;;;;;7.00;2.43;;;23.00;1.00;;;;;;5030282;28;46479;-77
2023/05/31 12:49:29;;;;;;;8.30;2.60;;;23.10;1.00;;;;;;5027952;28;46428;-77
2023/05/31 12:52:03;;;;;;;6.67;2.90;;;23.10;1.00;;;;;;5028440;28;46341;-77